Sao Joao, Brazil
Current Conditions -  °F | °C
As of 11:00 AM on Sunday 21 Dec 2014 (Local Time) from SBCH Reporting Station
Overcast Overcast  
Wind Chill: 72°   Ceiling: 8000
Heat Index: 72°   Visibility: 4mi
Dew Point: 66°   Wind: 9mph
Humidity: 83%   Direction: 30°NNE
Pressure: 29.74"   Gusts: NA
Location:  25.83°S, 52.73°W
Report Text: SBCH 211300Z 03008KT 7000 SCT004 SCT030 OVC080 22/19 Q1007 RERA
Loading
Personal Weather Stations






























Interactive Weather Map New forecast layout! Learn more

10-Day Weather Forecast

Advertisements
Track Severe Weather on mobile